createdAt,value
2022-09-28T00:01:18.324Z,7.50
2022-09-28T00:03:46.462Z,7.50
2022-09-28T00:06:14.921Z,7.60
2022-09-28T00:08:43.256Z,7.60
2022-09-28T00:11:12.942Z,7.60
2022-09-28T00:13:41.167Z,7.60
2022-09-28T00:16:14.118Z,7.50
2022-09-28T00:18:41.824Z,7.40
2022-09-28T00:21:09.265Z,7.40
2022-09-28T00:23:57.023Z,7.40
2022-09-28T00:26:25.266Z,7.30
2022-09-28T00:28:53.191Z,7.30
2022-09-28T00:31:20.863Z,7.20
2022-09-28T00:33:51.795Z,7.10
2022-09-28T00:36:19.647Z,7.10
2022-09-28T00:38:47.016Z,7.10
2022-09-28T00:41:14.880Z,7.00
2022-09-28T00:43:42.158Z,7.00
2022-09-28T00:46:15.606Z,7.00
2022-09-28T00:48:49.988Z,6.90
2022-09-28T00:51:17.400Z,6.90
2022-09-28T00:53:45.027Z,6.90
2022-09-28T00:56:14.800Z,6.80
2022-09-28T00:58:44.180Z,6.80
2022-09-28T01:01:12.585Z,6.70
2022-09-28T01:03:45.590Z,6.70
2022-09-28T01:06:16.756Z,6.70
2022-09-28T01:08:44.685Z,6.70
2022-09-28T01:11:14.058Z,6.60
2022-09-28T01:13:41.690Z,6.60
2022-09-28T01:16:09.117Z,6.50
2022-09-28T01:18:44.601Z,6.50
2022-09-28T01:21:15.109Z,6.40
2022-09-28T01:23:54.023Z,6.40
2022-09-28T01:26:40.230Z,6.40
2022-09-28T01:29:17.641Z,6.40
2022-09-28T01:31:53.653Z,6.30
2022-09-28T01:34:25.488Z,6.30
2022-09-28T01:36:55.243Z,6.30
2022-09-28T01:39:25.307Z,6.30
2022-09-28T01:41:54.362Z,6.30
2022-09-28T01:44:23.136Z,6.20
2022-09-28T01:46:50.923Z,6.20
2022-09-28T01:49:31.305Z,6.20
2022-09-28T01:52:07.011Z,6.10
2022-09-28T01:54:44.631Z,6.10
2022-09-28T01:57:32.373Z,6.10
2022-09-28T02:00:02.885Z,6.00
2022-09-28T02:02:48.468Z,6.00
2022-09-28T02:05:29.607Z,5.90
2022-09-28T02:08:02.275Z,5.90
2022-09-28T02:10:56.241Z,5.90
2022-09-28T02:13:28.081Z,5.90
2022-09-28T02:16:01.633Z,5.80
2022-09-28T02:18:30.026Z,5.80
2022-09-28T02:21:04.089Z,5.80
2022-09-28T02:23:33.910Z,5.70
2022-09-28T02:26:05.429Z,5.80
2022-09-28T02:28:32.888Z,5.70
2022-09-28T02:31:00.811Z,5.70
2022-09-28T02:33:35.921Z,5.70
2022-09-28T02:36:03.760Z,5.70
2022-09-28T02:38:36.344Z,5.70
2022-09-28T02:41:08.192Z,5.70
2022-09-28T02:43:38.672Z,5.70
2022-09-28T02:46:05.993Z,5.80
2022-09-28T02:49:17.389Z,5.70
2022-09-28T02:52:01.516Z,5.70
2022-09-28T02:54:36.446Z,5.70
2022-09-28T02:57:07.024Z,5.70
2022-09-28T02:59:37.620Z,5.70
2022-09-28T03:02:15.309Z,5.70
2022-09-28T03:04:47.285Z,5.80
2022-09-28T03:07:27.480Z,5.70
2022-09-28T03:10:00.990Z,5.70
2022-09-28T03:12:30.058Z,5.70
2022-09-28T03:15:10.847Z,5.70
2022-09-28T03:17:38.787Z,5.70
2022-09-28T03:20:06.619Z,5.60
2022-09-28T03:22:34.485Z,5.60
2022-09-28T03:25:01.824Z,5.60
2022-09-28T03:27:29.431Z,5.60
2022-09-28T03:29:56.811Z,5.60
2022-09-28T03:32:26.102Z,5.60
2022-09-28T03:34:53.380Z,5.60
2022-09-28T03:37:20.887Z,5.60
2022-09-28T03:39:48.264Z,5.50
2022-09-28T03:42:15.657Z,5.50
2022-09-28T03:44:47.813Z,5.50
2022-09-28T03:47:17.891Z,5.50
2022-09-28T03:49:45.742Z,5.50
2022-09-28T03:52:13.624Z,5.50
2022-09-28T03:54:43.722Z,5.40
2022-09-28T03:57:13.473Z,5.40
2022-09-28T03:59:40.893Z,5.30
2022-09-28T04:02:08.534Z,5.30
2022-09-28T04:04:35.886Z,5.20
2022-09-28T04:07:03.339Z,5.20
2022-09-28T04:09:30.599Z,5.10
2022-09-28T04:12:03.988Z,5.10
2022-09-28T04:14:33.327Z,5.10
2022-09-28T04:17:00.678Z,5.00
2022-09-28T04:19:29.308Z,5.00
2022-09-28T04:22:16.990Z,5.00
2022-09-28T04:24:44.464Z,5.00
2022-09-28T04:27:30.118Z,5.00
2022-09-28T04:29:57.644Z,4.90
2022-09-28T04:32:24.991Z,4.90
2022-09-28T04:34:52.429Z,4.90
2022-09-28T04:37:19.835Z,4.90
2022-09-28T04:39:48.568Z,4.80
2022-09-28T04:42:18.862Z,4.80
2022-09-28T04:44:46.468Z,4.80
2022-09-28T04:47:13.888Z,4.80
2022-09-28T04:50:01.563Z,4.80
2022-09-28T04:52:32.409Z,4.80
2022-09-28T04:54:59.843Z,4.80
2022-09-28T04:57:27.285Z,4.80
2022-09-28T04:59:55.551Z,4.80
2022-09-28T05:02:22.974Z,4.80
2022-09-28T05:05:11.558Z,4.80
2022-09-28T05:08:04.290Z,4.70
2022-09-28T05:10:32.058Z,4.60
2022-09-28T05:13:01.642Z,4.60
2022-09-28T05:15:29.594Z,4.60
2022-09-28T05:17:57.011Z,4.50
2022-09-28T05:20:42.213Z,4.50
2022-09-28T05:23:11.066Z,4.40
2022-09-28T05:25:39.008Z,5.30
2022-09-28T05:28:20.327Z,4.40
2022-09-28T05:31:07.896Z,4.30
2022-09-28T05:33:54.815Z,4.30
2022-09-28T05:36:22.841Z,4.30
2022-09-28T05:38:50.199Z,4.30
2022-09-28T05:41:17.698Z,4.30
2022-09-28T05:43:45.726Z,4.30
2022-09-28T05:46:13.236Z,4.40
2022-09-28T05:48:42.167Z,4.30
2022-09-28T05:51:10.360Z,4.20
2022-09-28T05:53:37.749Z,4.20
2022-09-28T05:56:05.629Z,4.20
2022-09-28T05:58:35.717Z,4.20
2022-09-28T06:01:03.408Z,4.30
2022-09-28T06:03:31.257Z,4.20
2022-09-28T06:06:00.539Z,4.20
2022-09-28T06:08:28.021Z,4.30
2022-09-28T06:11:12.624Z,4.20
2022-09-28T06:13:40.045Z,4.20
2022-09-28T06:16:08.163Z,4.20
2022-09-28T06:18:35.701Z,4.30
2022-09-28T06:21:21.382Z,4.30
2022-09-28T06:23:50.673Z,4.30
2022-09-28T06:26:19.853Z,4.30
2022-09-28T06:28:48.022Z,4.30
2022-09-28T06:31:16.006Z,4.30
2022-09-28T06:33:52.371Z,4.20
2022-09-28T06:36:20.876Z,4.20
2022-09-28T06:38:50.032Z,4.20
2022-09-28T06:41:18.423Z,4.20
2022-09-28T06:43:49.420Z,4.10
2022-09-28T06:46:38.860Z,4.20
2022-09-28T06:49:30.712Z,4.40
2022-09-28T06:52:16.783Z,4.30
2022-09-28T06:55:07.117Z,4.30
2022-09-28T06:57:42.156Z,4.30
2022-09-28T07:00:13.584Z,4.30
2022-09-28T07:02:45.061Z,4.30
2022-09-28T07:05:34.563Z,4.40
2022-09-28T07:08:25.902Z,4.40
2022-09-28T07:11:21.426Z,4.40
2022-09-28T07:14:25.464Z,4.40
2022-09-28T07:17:13.330Z,4.50
2022-09-28T07:19:42.857Z,4.50
2022-09-28T07:22:18.583Z,4.50
2022-09-28T07:24:48.364Z,4.60
2022-09-28T07:27:39.599Z,4.60
2022-09-28T07:30:34.038Z,4.70
2022-09-28T07:33:14.622Z,4.70
2022-09-28T07:35:54.040Z,4.70
2022-09-28T07:38:23.673Z,4.80
2022-09-28T07:41:09.938Z,4.90
2022-09-28T07:43:40.280Z,5.00
2022-09-28T07:46:14.107Z,5.10
2022-09-28T07:48:49.557Z,5.20
2022-09-28T07:51:22.512Z,5.30
2022-09-28T07:54:10.031Z,5.40
2022-09-28T07:56:55.293Z,5.50
2022-09-28T07:59:53.715Z,5.60
2022-09-28T08:02:48.459Z,5.70
2022-09-28T08:05:21.930Z,5.90
2022-09-28T08:07:49.365Z,6.00
2022-09-28T08:10:17.955Z,6.20
2022-09-28T08:13:16.905Z,6.30
2022-09-28T08:16:12.944Z,6.50
2022-09-28T08:18:58.890Z,6.70
2022-09-28T08:21:44.964Z,6.80
2022-09-28T08:24:14.156Z,7.00
2022-09-28T08:26:43.123Z,7.10
2022-09-28T08:29:12.107Z,7.20
2022-09-28T08:32:01.789Z,7.30
2022-09-28T08:34:36.093Z,7.40
2022-09-28T08:37:38.577Z,7.40
2022-09-28T08:40:25.898Z,7.50
2022-09-28T08:43:32.266Z,7.60
2022-09-28T08:46:12.587Z,7.70
2022-09-28T08:49:25.514Z,7.70
2022-09-28T08:52:23.530Z,7.90
2022-09-28T08:55:13.771Z,7.90
2022-09-28T08:57:47.671Z,8.00
2022-09-28T09:00:19.434Z,8.10
2022-09-28T09:02:48.102Z,8.10
2022-09-28T09:05:20.748Z,8.20
2022-09-28T09:08:05.162Z,8.30
2022-09-28T09:10:39.468Z,8.30
2022-09-28T09:13:12.396Z,8.40
2022-09-28T09:15:48.794Z,8.50
2022-09-28T09:18:35.156Z,8.60
2022-09-28T09:21:29.812Z,8.60
2022-09-28T09:24:01.528Z,8.70
2022-09-28T09:26:36.225Z,8.80
2022-09-28T09:29:22.937Z,8.80
2022-09-28T09:31:59.624Z,8.90
2022-09-28T09:34:50.765Z,9.00
2022-09-28T09:37:42.437Z,9.10
2022-09-28T09:40:45.447Z,9.30
2022-09-28T09:43:37.393Z,9.30
2022-09-28T09:46:37.108Z,9.40
2022-09-28T09:49:24.994Z,9.50
2022-09-28T09:52:15.558Z,9.60
2022-09-28T09:54:46.565Z,9.80
2022-09-28T09:57:32.338Z,10.00
2022-09-28T10:00:20.114Z,10.10
2022-09-28T10:03:03.643Z,10.20
2022-09-28T10:05:39.218Z,10.30
2022-09-28T10:08:06.826Z,10.40
2022-09-28T10:10:35.942Z,10.40
2022-09-28T10:13:13.358Z,10.50
2022-09-28T10:15:42.493Z,10.60
2022-09-28T10:18:16.054Z,10.50
2022-09-28T10:21:06.513Z,10.60
2022-09-28T10:23:56.768Z,10.70
2022-09-28T10:26:34.706Z,10.70
2022-09-28T10:29:05.070Z,10.90
2022-09-28T10:31:43.814Z,10.90
2022-09-28T10:34:35.581Z,11.00
2022-09-28T10:37:11.213Z,11.00
2022-09-28T10:39:57.288Z,11.10
2022-09-28T10:42:28.631Z,11.20
2022-09-28T10:45:01.137Z,11.30
2022-09-28T10:47:43.675Z,11.30
2022-09-28T10:50:21.089Z,11.40
2022-09-28T10:52:49.990Z,11.40
2022-09-28T10:55:37.599Z,11.50
2022-09-28T10:58:44.861Z,11.60
2022-09-28T11:01:26.767Z,11.70
2022-09-28T11:03:59.834Z,11.80
2022-09-28T11:06:37.978Z,12.00
2022-09-28T11:09:07.882Z,12.10
2022-09-28T11:11:42.105Z,12.30
2022-09-28T11:14:27.791Z,12.50
2022-09-28T11:17:17.735Z,12.60
2022-09-28T11:19:46.627Z,12.80
2022-09-28T11:22:20.653Z,13.00
2022-09-28T11:24:48.827Z,13.30
2022-09-28T11:27:20.941Z,13.30
2022-09-28T11:30:11.444Z,13.30
2022-09-28T11:32:54.101Z,13.40
2022-09-28T11:35:50.622Z,13.70
2022-09-28T11:38:18.453Z,14.00
2022-09-28T11:41:17.432Z,14.30
2022-09-28T11:44:11.273Z,14.60
2022-09-28T11:46:46.066Z,14.80
2022-09-28T11:49:16.601Z,15.20
2022-09-28T11:51:45.569Z,15.70
2022-09-28T11:54:19.307Z,15.90
2022-09-28T11:56:48.864Z,16.20
2022-09-28T11:59:39.388Z,16.50
2022-09-28T12:02:10.955Z,16.90
2022-09-28T12:04:46.284Z,17.30
2022-09-28T12:07:19.023Z,17.60
2022-09-28T12:09:52.516Z,17.60
2022-09-28T12:12:43.655Z,17.80
2022-09-28T12:15:15.516Z,18.10
2022-09-28T12:17:45.373Z,18.00
2022-09-28T12:20:26.919Z,17.60
2022-09-28T12:23:00.189Z,17.00
2022-09-28T12:25:28.882Z,16.30
2022-09-28T12:27:58.349Z,15.80
2022-09-28T12:30:27.949Z,15.40
2022-09-28T12:33:04.367Z,15.00
2022-09-28T12:35:31.667Z,14.60
2022-09-28T12:38:17.863Z,14.50
2022-09-28T12:40:49.982Z,14.90
2022-09-28T12:43:30.158Z,15.90
2022-09-28T12:46:13.408Z,16.80
2022-09-28T12:52:00.665Z,16.50
2022-09-28T12:54:44.373Z,16.10
2022-09-28T12:57:11.675Z,16.00
2022-09-28T12:59:42.194Z,16.60
2022-09-28T13:02:27.994Z,17.40
2022-09-28T13:05:14.227Z,18.20
2022-09-28T13:07:50.956Z,18.90
2022-09-28T13:10:33.862Z,18.80
2022-09-28T13:13:19.763Z,18.50
2022-09-28T13:16:05.868Z,18.50
2022-09-28T13:18:37.467Z,18.70
2022-09-28T13:21:05.325Z,18.70
2022-09-28T13:23:43.331Z,18.40
2022-09-28T13:26:20.510Z,18.00
2022-09-28T13:28:50.327Z,18.20
2022-09-28T13:31:22.800Z,18.60
2022-09-28T13:33:51.272Z,19.30
2022-09-28T13:36:27.805Z,20.00
2022-09-28T13:38:56.085Z,20.80
2022-09-28T13:41:31.836Z,21.20
2022-09-28T13:44:11.678Z,21.40
2022-09-28T13:46:47.611Z,21.20
2022-09-28T13:49:21.591Z,21.10
2022-09-28T13:51:58.280Z,21.10
2022-09-28T13:54:40.775Z,20.80
2022-09-28T13:57:10.038Z,20.40
2022-09-28T13:59:47.308Z,19.80
2022-09-28T14:02:24.505Z,19.20
2022-09-28T14:04:53.454Z,18.60
2022-09-28T14:07:41.206Z,18.00
2022-09-28T14:10:20.577Z,17.50
2022-09-28T14:12:49.551Z,16.90
2022-09-28T14:15:37.196Z,16.40
2022-09-28T14:18:25.012Z,16.20
2022-09-28T14:20:55.524Z,16.00
2022-09-28T14:23:45.636Z,15.90
2022-09-28T14:26:41.914Z,15.80
2022-09-28T14:29:22.507Z,15.70
2022-09-28T14:31:49.991Z,15.60
2022-09-28T14:34:34.383Z,15.50
2022-09-28T14:37:21.499Z,15.40
2022-09-28T14:40:08.067Z,15.50
2022-09-28T14:42:35.490Z,15.40
2022-09-28T14:45:06.282Z,15.30
2022-09-28T14:47:36.242Z,15.10
2022-09-28T14:50:22.266Z,14.80
2022-09-28T14:52:57.248Z,14.70
2022-09-28T14:55:27.735Z,14.50
2022-09-28T14:57:57.270Z,14.40
2022-09-28T15:00:26.265Z,14.30
2022-09-28T15:02:55.224Z,14.30
2022-09-28T15:05:24.380Z,14.30
2022-09-28T15:07:53.522Z,14.30
2022-09-28T15:10:28.296Z,14.30
2022-09-28T15:12:56.847Z,14.30
2022-09-28T15:15:33.540Z,14.30
2022-09-28T15:18:19.383Z,14.40
2022-09-28T15:20:47.746Z,14.40
2022-09-28T15:23:34.641Z,14.40
2022-09-28T15:26:02.761Z,14.40
2022-09-28T15:28:30.558Z,14.40
2022-09-28T15:31:02.283Z,14.50
2022-09-28T15:33:50.195Z,14.50
2022-09-28T15:36:18.885Z,14.50
2022-09-28T15:39:06.319Z,14.50
2022-09-28T15:41:34.161Z,14.50
2022-09-28T15:44:19.001Z,14.50
2022-09-28T15:46:52.227Z,14.30
2022-09-28T15:49:25.646Z,14.20
2022-09-28T15:51:55.413Z,14.00
2022-09-28T15:54:32.656Z,13.80
2022-09-28T15:57:02.686Z,13.70
2022-09-28T15:59:30.841Z,13.60
2022-09-28T16:02:10.948Z,13.50
2022-09-28T16:04:59.101Z,13.40
2022-09-28T16:07:39.677Z,13.30
2022-09-28T16:10:13.446Z,13.10
2022-09-28T16:12:48.117Z,13.00
2022-09-28T16:15:20.432Z,12.90
2022-09-28T16:17:55.705Z,12.80
2022-09-28T16:20:27.669Z,12.80
2022-09-28T16:23:03.584Z,12.70
2022-09-28T16:25:33.264Z,12.70
2022-09-28T16:28:00.888Z,12.60
2022-09-28T16:30:32.471Z,12.60
2022-09-28T16:33:05.196Z,12.60
2022-09-28T16:35:35.571Z,12.40
2022-09-28T16:38:03.424Z,12.50
2022-09-28T16:40:31.738Z,12.40
2022-09-28T16:43:02.064Z,12.40
2022-09-28T16:45:29.520Z,12.40
2022-09-28T16:47:57.471Z,12.50
2022-09-28T16:50:25.950Z,12.50
2022-09-28T16:53:21.038Z,12.50
2022-09-28T16:55:49.776Z,12.60
2022-09-28T16:58:17.157Z,12.60
2022-09-28T17:00:45.781Z,12.50
2022-09-28T17:03:14.610Z,12.50
2022-09-28T17:05:42.526Z,12.40
2022-09-28T17:08:12.447Z,12.30
2022-09-28T17:11:09.680Z,12.10
2022-09-28T17:13:33.925Z,12.00
2022-09-28T17:16:03.109Z,11.90
2022-09-28T17:18:33.509Z,11.90
2022-09-28T17:21:03.215Z,11.80
2022-09-28T17:23:30.675Z,11.80
2022-09-28T17:25:59.592Z,11.80
2022-09-28T17:28:29.953Z,11.70
2022-09-28T17:30:57.679Z,11.70
2022-09-28T17:33:25.096Z,11.70
2022-09-28T17:35:53.664Z,11.70
2022-09-28T17:38:21.297Z,11.70
2022-09-28T17:40:48.625Z,11.70
2022-09-28T17:43:16.137Z,11.60
2022-09-28T17:45:44.878Z,11.70
2022-09-28T17:48:16.975Z,11.70
2022-09-28T17:50:46.507Z,11.60
2022-09-28T17:53:14.403Z,11.60
2022-09-28T17:55:43.101Z,11.60
2022-09-28T17:58:17.909Z,11.60
2022-09-28T18:00:46.181Z,11.60
2022-09-28T18:03:15.173Z,11.60
2022-09-28T18:05:43.699Z,11.60
2022-09-28T18:08:15.931Z,11.50
2022-09-28T18:10:43.381Z,11.50
2022-09-28T18:13:10.946Z,11.50
2022-09-28T18:15:38.352Z,11.50
2022-09-28T18:18:05.866Z,11.50
2022-09-28T18:20:34.498Z,11.50
2022-09-28T18:23:02.048Z,11.50
2022-09-28T18:25:30.350Z,11.40
2022-09-28T18:27:59.992Z,11.40
2022-09-28T18:30:28.311Z,11.30
2022-09-28T18:32:55.852Z,11.30
2022-09-28T18:35:23.701Z,11.30
2022-09-28T18:37:51.391Z,11.20
2022-09-28T18:40:20.143Z,11.20
2022-09-28T18:42:49.117Z,11.20
2022-09-28T18:45:17.826Z,11.10
2022-09-28T18:47:46.590Z,11.10
2022-09-28T18:50:15.523Z,11.00
2022-09-28T18:52:43.936Z,11.00
2022-09-28T18:55:12.503Z,10.90
2022-09-28T18:57:41.461Z,10.90
2022-09-28T19:00:10.413Z,10.80
2022-09-28T19:02:38.248Z,10.80
2022-09-28T19:05:06.112Z,10.80
2022-09-28T19:07:34.153Z,10.80
2022-09-28T19:10:01.503Z,10.70
2022-09-28T19:12:28.802Z,10.70
2022-09-28T19:14:56.469Z,10.70
2022-09-28T19:17:23.933Z,10.70
2022-09-28T19:19:52.091Z,10.70
2022-09-28T19:22:19.414Z,10.70
2022-09-28T19:24:46.802Z,10.70
2022-09-28T19:27:14.129Z,10.70
2022-09-28T19:29:41.540Z,10.60
2022-09-28T19:32:08.806Z,10.60
2022-09-28T19:34:36.227Z,10.60
2022-09-28T19:37:04.059Z,10.50
2022-09-28T19:39:31.745Z,10.50
2022-09-28T19:41:59.846Z,10.50
2022-09-28T19:44:28.569Z,10.50
2022-09-28T19:46:57.218Z,10.50
2022-09-28T19:49:26.205Z,10.50
2022-09-28T19:52:14.606Z,10.50
2022-09-28T19:54:44.489Z,10.50
2022-09-28T19:57:12.908Z,10.50
2022-09-28T19:59:40.300Z,10.50
2022-09-28T20:02:08.373Z,10.50
2022-09-28T20:04:36.004Z,10.50
2022-09-28T20:07:03.718Z,10.50
2022-09-28T20:09:31.724Z,10.60
2022-09-28T20:11:59.052Z,10.50
2022-09-28T20:14:32.166Z,10.50
2022-09-28T20:17:01.485Z,10.50
2022-09-28T20:19:28.760Z,10.50
2022-09-28T20:21:59.457Z,10.50
2022-09-28T20:24:28.830Z,10.50
2022-09-28T20:26:56.238Z,10.50
2022-09-28T20:29:24.441Z,10.40
2022-09-28T20:31:52.068Z,10.50
2022-09-28T20:34:19.464Z,10.40
2022-09-28T20:36:46.900Z,10.40
2022-09-28T20:39:14.439Z,10.40
2022-09-28T20:41:41.966Z,10.40
2022-09-28T20:44:10.025Z,10.40
2022-09-28T20:46:38.097Z,10.30
2022-09-28T20:49:05.775Z,10.30
2022-09-28T20:51:33.413Z,10.30
2022-09-28T20:54:01.101Z,10.30
2022-09-28T20:56:37.643Z,10.30
2022-09-28T20:59:07.687Z,10.20
2022-09-28T21:01:35.535Z,10.20
2022-09-28T21:04:04.243Z,10.20
2022-09-28T21:06:33.296Z,10.10
2022-09-28T21:09:01.022Z,10.20
2022-09-28T21:11:29.701Z,10.10
2022-09-28T21:13:59.035Z,10.10
2022-09-28T21:16:27.018Z,10.10
2022-09-28T21:18:54.580Z,10.10
2022-09-28T21:21:22.432Z,10.00
2022-09-28T21:23:53.245Z,10.00
2022-09-28T21:26:27.502Z,10.00
2022-09-28T21:28:54.801Z,10.00
2022-09-28T21:31:27.568Z,10.00
2022-09-28T21:33:56.368Z,9.90
2022-09-28T21:36:24.570Z,9.90
2022-09-28T21:38:52.257Z,9.90
2022-09-28T21:41:19.570Z,9.80
2022-09-28T21:43:47.011Z,9.80
2022-09-28T21:46:14.411Z,9.80
2022-09-28T21:48:41.876Z,9.80
2022-09-28T21:51:12.494Z,9.80
2022-09-28T21:53:40.013Z,9.80
2022-09-28T21:56:09.799Z,9.70
2022-09-28T21:58:37.230Z,9.70
2022-09-28T22:01:06.909Z,9.70
2022-09-28T22:03:35.405Z,9.70
2022-09-28T22:06:03.190Z,9.70
2022-09-28T22:08:30.604Z,9.70
2022-09-28T22:11:01.911Z,9.70
2022-09-28T22:13:30.266Z,9.80
2022-09-28T22:15:58.984Z,9.80
2022-09-28T22:18:27.458Z,9.80
2022-09-28T22:21:18.043Z,9.80
2022-09-28T22:23:45.885Z,9.80
2022-09-28T22:26:17.905Z,9.80
2022-09-28T22:28:52.925Z,9.80
2022-09-28T22:31:40.394Z,9.80
2022-09-28T22:34:08.229Z,9.80
2022-09-28T22:36:35.569Z,9.80
2022-09-28T22:39:03.056Z,9.80
2022-09-28T22:41:30.485Z,9.80
2022-09-28T22:43:59.015Z,9.80
2022-09-28T22:46:27.965Z,9.80
2022-09-28T22:48:56.472Z,9.80
2022-09-28T22:51:24.646Z,9.70
2022-09-28T22:53:52.105Z,9.70
2022-09-28T22:56:19.499Z,9.70
2022-09-28T22:58:46.933Z,9.70
2022-09-28T23:01:21.479Z,9.70
2022-09-28T23:03:50.001Z,9.70
2022-09-28T23:06:18.500Z,9.70
2022-09-28T23:08:46.392Z,9.70
2022-09-28T23:11:13.990Z,9.70
2022-09-28T23:13:41.488Z,9.70
2022-09-28T23:16:11.084Z,9.70
2022-09-28T23:18:40.956Z,9.70
2022-09-28T23:21:16.122Z,9.70
2022-09-28T23:23:47.198Z,9.70
2022-09-28T23:26:16.086Z,9.70
2022-09-28T23:28:43.681Z,9.60
2022-09-28T23:31:15.389Z,9.70
2022-09-28T23:33:43.099Z,9.60
2022-09-28T23:36:10.760Z,9.60
2022-09-28T23:38:38.481Z,9.70
2022-09-28T23:41:06.315Z,9.60
2022-09-28T23:43:33.969Z,9.70
2022-09-28T23:46:01.487Z,9.70
2022-09-28T23:48:29.091Z,9.70
2022-09-28T23:50:56.430Z,9.80
2022-09-28T23:53:23.796Z,9.80
2022-09-28T23:55:51.138Z,9.80
2022-09-28T23:58:18.683Z,9.80
